Time;durP1;ratioP1;P1;durP2;ratioP2;P2;SDS_P1;SDS_P2;PMS_P1;PMS_P2;Temp;Humidity;BMP_temperature;BMP_pressure;BME280_temperature;BME280_humidity;BME280_pressure;Samples;Min_cycle;Max_cycle;Signal;HPM_P1;HPM_P2
2022/05/14 00:01:04;;;;;;;8.02;4.93;;;;;;;14.36;67.94;99875.47;5108017;28;20028;-29
2022/05/14 00:03:32;;;;;;;9.80;5.03;;;;;;;14.79;67.15;99890.81;5089105;28;20108;-30
2022/05/14 00:06:03;;;;;;;9.67;5.33;;;;;;;15.00;66.27;99897.22;5089398;28;20458;-30
2022/05/14 00:08:30;;;;;;;7.40;5.18;;;;;;;15.09;65.92;99878.78;5089195;28;20269;-29
2022/05/14 00:13:41;;;;;;;11.02;5.40;;;;;;;15.72;62.76;99889.03;5107324;28;20592;-29
2022/05/14 00:16:08;;;;;;;9.50;5.28;;;;;;;15.93;61.40;99887.31;5089207;28;20027;-28
2022/05/14 00:18:35;;;;;;;10.27;4.97;;;;;;;15.63;62.25;99894.88;5089160;28;20031;-30
2022/05/14 00:21:01;;;;;;;8.57;5.03;;;;;;;15.62;62.73;99895.94;5089009;28;20035;-29
2022/05/14 00:23:27;;;;;;;9.20;5.07;;;;;;;15.77;61.78;99883.69;5087871;28;20060;-30
2022/05/14 00:25:53;;;;;;;7.97;5.20;;;;;;;15.72;61.74;99883.66;5088512;28;20043;-33
2022/05/14 00:28:19;;;;;;;10.18;5.47;;;;;;;15.99;61.72;99895.16;5089151;28;20050;-29
2022/05/14 00:30:45;;;;;;;8.30;5.13;;;;;;;15.72;61.42;99886.34;5088933;28;20039;-30
2022/05/14 00:33:11;;;;;;;9.43;5.88;;;;;;;15.50;62.14;99864.91;5089045;28;20027;-32
2022/05/14 00:35:37;;;;;;;7.75;5.38;;;;;;;15.21;63.47;99871.38;5088463;28;20047;-29
2022/05/14 00:38:04;;;;;;;9.52;5.78;;;;;;;15.18;62.90;99885.34;5088741;28;20495;-29
2022/05/14 00:40:42;;;;;;;10.20;5.63;;;;;;;15.10;63.56;99875.03;5084848;28;20052;-29
2022/05/14 00:43:08;;;;;;;;;;;;;;;15.17;62.97;99880.22;5087645;28;20103;-33
2022/05/14 00:45:37;;;;;;;7.88;5.45;;;;;;;15.10;62.12;99880.41;5085348;28;20006;-32
2022/05/14 00:48:03;;;;;;;6.40;5.03;;;;;;;15.31;60.16;99883.31;5085492;28;20032;-29
2022/05/14 00:50:46;;;;;;;6.55;5.18;;;;;;;15.25;60.46;99882.44;5086768;28;20561;-29
2022/05/14 00:53:23;;;;;;;7.13;5.22;;;;;;;14.86;62.21;99886.06;5085617;28;20487;-28
2022/05/14 00:55:52;;;;;;;8.30;5.40;;;;;;;14.24;64.90;99879.09;5085195;28;20488;-29
2022/05/14 00:58:41;;;;;;;8.02;5.60;;;;;;;14.27;65.13;99880.47;5086995;28;20040;-28
2022/05/14 01:01:07;;;;;;;9.45;5.30;;;;;;;14.47;64.63;99871.88;5085435;28;20036;-33
2022/05/14 01:03:33;;;;;;;11.30;6.47;;;;;;;14.99;62.26;99867.94;5086722;28;20032;-30
2022/05/14 01:06:00;;;;;;;11.02;5.85;;;;;;;14.65;63.14;99860.88;5085409;28;20415;-28
2022/05/14 01:08:28;;;;;;;14.70;5.53;;;;;;;14.48;64.38;99873.50;5085394;28;20028;-29
2022/05/14 01:10:53;;;;;;;10.43;5.78;;;;;;;14.13;65.86;99868.47;5085189;28;20051;-29
2022/05/14 01:13:19;;;;;;;9.57;5.95;;;;;;;14.29;66.28;99888.28;5086835;28;20491;-33
2022/05/14 01:15:51;;;;;;;9.75;5.72;;;;;;;14.86;63.29;99863.78;5086354;28;20096;-31
2022/05/14 01:18:20;;;;;;;9.25;5.65;;;;;;;14.84;63.55;99872.06;5085300;28;20098;-29
2022/05/14 01:20:57;;;;;;;8.93;5.68;;;;;;;14.35;65.08;99863.94;5085279;28;20043;-32
2022/05/14 01:26:47;;;;;;;8.27;5.88;;;;;;;14.19;65.95;99870.97;5080702;28;20672;-32
2022/05/14 01:29:22;;;;;;;10.50;4.88;;;;;;;14.23;65.70;99865.94;5085116;28;20030;-31
2022/05/14 01:31:49;;;;;;;9.48;5.90;;;;;;;13.34;68.51;99842.59;5086326;28;20032;-30
2022/05/14 01:34:24;;;;;;;8.27;4.90;;;;;;;13.94;66.50;99874.13;5087013;28;20024;-30
2022/05/14 01:36:50;;;;;;;20.92;7.32;;;;;;;14.26;65.85;99860.06;5088576;28;20028;-32
2022/05/14 01:39:15;;;;;;;11.55;6.35;;;;;;;14.61;64.16;99878.53;5097579;28;20066;-29
2022/05/14 01:41:41;;;;;;;8.35;5.50;;;;;;;13.76;67.58;99869.81;5110228;28;20027;-28
2022/05/14 01:44:07;;;;;;;10.75;5.38;;;;;;;13.75;67.71;99870.88;5091791;28;20608;-36
2022/05/14 01:46:33;;;;;;;12.73;5.63;;;;;;;13.68;68.11;99864.06;5110118;28;20038;-30
2022/05/14 01:48:59;;;;;;;8.45;5.70;;;;;;;14.33;65.48;99854.53;5109971;28;20032;-31
2022/05/14 01:51:24;;;;;;;9.25;5.63;;;;;;;14.32;65.29;99869.78;5091252;28;20188;-29
2022/05/14 01:53:51;;;;;;;8.63;5.90;;;;;;;14.33;65.26;99866.06;5109531;28;20039;-29
2022/05/14 01:56:17;;;;;;;15.05;6.70;;;;;;;13.80;66.40;99851.38;5091226;28;20504;-30
2022/05/14 01:58:43;;;;;;;7.90;5.03;;;;;;;13.26;68.57;99868.72;5091722;28;20066;-30
2022/05/14 02:01:21;;;;;;;8.43;5.13;;;;;;;13.54;66.76;99863.56;5110115;28;20032;-29
2022/05/14 02:03:51;;;;;;;10.32;5.75;;;;;;;13.74;66.49;99866.56;5091087;28;20111;-29
2022/05/14 02:06:17;;;;;;;9.98;6.28;;;;;;;13.87;66.30;99862.72;5091364;28;20415;-32
2022/05/14 02:08:43;;;;;;;55.10;8.95;;;;;;;13.49;67.68;99868.84;5091513;28;20061;-29
2022/05/14 02:11:10;;;;;;;10.52;6.30;;;;;;;13.91;66.53;99879.94;5109632;28;20035;-30
2022/05/14 02:13:36;;;;;;;11.80;5.95;;;;;;;13.83;65.98;99848.19;5090836;28;20493;-35
2022/05/14 02:16:03;;;;;;;8.93;6.10;;;;;;;13.96;65.01;99868.50;5109788;28;20066;-30
2022/05/14 02:18:29;;;;;;;11.30;6.60;;;;;;;13.87;65.32;99878.81;5090589;28;20031;-31
2022/05/14 02:20:55;;;;;;;13.95;6.43;;;;;;;13.52;66.46;99858.44;5091334;28;20024;-30
2022/05/14 02:23:21;;;;;;;9.18;6.07;;;;;;;13.40;68.00;99863.91;5090915;28;20089;-30
2022/05/14 02:25:47;;;;;;;9.75;5.85;;;;;;;13.58;67.90;99865.50;5109333;28;20038;-29
2022/05/14 02:28:13;;;;;;;8.73;5.65;;;;;;;13.73;65.92;99834.66;5090593;28;20171;-28
2022/05/14 02:30:38;;;;;;;8.75;5.82;;;;;;;14.29;64.02;99864.94;5109357;28;20506;-31
2022/05/14 02:33:04;;;;;;;9.20;6.20;;;;;;;14.42;62.88;99872.59;5108977;28;20043;-29
2022/05/14 02:35:30;;;;;;;12.75;5.68;;;;;;;13.81;65.78;99869.91;5090337;28;20027;-28
2022/05/14 02:37:55;;;;;;;8.82;5.97;;;;;;;13.56;67.44;99872.97;5109331;28;20036;-32
2022/05/14 02:40:21;;;;;;;8.45;5.72;;;;;;;13.97;65.81;99857.53;5090278;28;20051;-30
2022/05/14 02:42:47;;;;;;;9.73;5.50;;;;;;;13.93;65.53;99877.84;5109413;28;20101;-32
2022/05/14 02:45:12;;;;;;;9.40;5.78;;;;;;;13.81;65.89;99869.06;5107830;28;20039;-31
2022/05/14 02:47:38;;;;;;;9.20;5.63;;;;;;;13.20;68.22;99868.88;5108606;28;20024;-29
2022/05/14 02:50:06;;;;;;;9.38;5.63;;;;;;;13.11;69.16;99883.69;5109167;28;20102;-29
2022/05/14 02:52:32;;;;;;;9.10;5.80;;;;;;;13.17;68.35;99859.44;5108978;28;20031;-36
2022/05/14 02:54:58;;;;;;;11.88;5.78;;;;;;;13.15;67.62;99848.16;5109165;28;20039;-29
2022/05/14 02:57:23;;;;;;;8.90;5.53;;;;;;;12.92;69.01;99873.19;5108726;28;20028;-29
2022/05/14 02:59:49;;;;;;;8.00;5.50;;;;;;;13.33;67.69;99857.06;5090099;28;20027;-30
2022/05/14 03:02:14;;;;;;;12.07;6.07;;;;;;;13.41;66.94;99854.00;5108504;28;20029;-28
2022/05/14 03:04:40;;;;;;;9.80;6.05;;;;;;;13.46;67.47;99870.97;5108889;28;20039;-28
2022/05/14 03:07:08;;;;;;;11.25;6.32;;;;;;;13.01;69.72;99874.41;5090163;28;20391;-29
2022/05/14 03:09:36;;;;;;;12.65;6.22;;;;;;;12.96;70.40;99881.56;5089876;28;20031;-29
2022/05/14 03:12:02;;;;;;;7.80;5.40;;;;;;;13.63;67.70;99865.59;5108283;28;20039;-29
2022/05/14 03:14:28;;;;;;;8.13;5.75;;;;;;;13.38;68.23;99859.81;5089794;28;20039;-30
2022/05/14 03:16:54;;;;;;;7.85;5.38;;;;;;;13.09;70.07;99867.06;5107790;28;20027;-29
2022/05/14 03:19:20;;;;;;;10.48;5.60;;;;;;;12.69;71.37;99863.38;5108313;28;20040;-33
2022/05/14 03:21:45;;;;;;;6.80;4.25;;;;;;;12.37;70.06;99860.31;5107834;28;20039;-32
2022/05/14 03:24:11;;;;;;;18.13;5.72;;;;;;;13.11;68.75;99851.56;5089568;28;20028;-29
2022/05/14 03:26:38;;;;;;;7.85;5.90;;;;;;;13.29;69.14;99866.63;5089717;28;20027;-29
2022/05/14 03:29:04;;;;;;;9.15;6.30;;;;;;;13.38;69.09;99846.44;5089538;28;20479;-28
2022/05/14 03:31:31;;;;;;;9.77;5.85;;;;;;;13.52;68.64;99869.16;5107820;28;20109;-29
2022/05/14 03:33:57;;;;;;;10.63;6.60;;;;;;;13.27;69.23;99843.53;5089542;28;20023;-28
2022/05/14 03:36:23;;;;;;;10.18;6.38;;;;;;;13.46;69.63;99862.94;5089483;28;20035;-32
2022/05/14 03:38:48;;;;;;;10.13;7.55;;;;;;;13.41;69.87;99870.06;5089353;28;20062;-28
2022/05/14 03:41:16;;;;;;;11.52;7.03;;;;;;;13.49;70.13;99876.91;5107826;28;20019;-29
2022/05/14 03:43:42;;;;;;;9.65;6.53;;;;;;;13.27;71.03;99873.00;5088968;28;20038;-30
2022/05/14 03:46:10;;;;;;;9.73;6.03;;;;;;;13.10;71.76;99879.38;5089347;28;20888;-30
2022/05/14 03:48:36;;;;;;;11.80;6.88;;;;;;;13.07;72.74;99880.66;5107826;28;20031;-31
2022/05/14 03:51:02;;;;;;;10.88;5.03;;;;;;;12.75;72.25;99883.84;5107502;28;20485;-29
2022/05/14 03:53:29;;;;;;;8.98;5.20;;;;;;;12.58;73.06;99878.38;5089033;28;20099;-29
2022/05/14 03:55:55;;;;;;;9.85;5.85;;;;;;;12.82;73.05;99899.75;5089103;28;20092;-28
2022/05/14 03:58:20;;;;;;;13.10;6.53;;;;;;;12.65;74.69;99902.34;5107378;28;20028;-28
2022/05/14 04:00:46;;;;;;;8.30;5.47;;;;;;;12.68;76.12;99901.06;5107532;28;20031;-32
2022/05/14 04:03:12;;;;;;;10.23;5.82;;;;;;;13.30;72.41;99897.72;5107678;28;20085;-29
2022/05/14 04:05:37;;;;;;;9.27;5.82;;;;;;;13.04;73.24;99892.69;5107305;28;20019;-32
2022/05/14 04:08:03;;;;;;;15.23;6.82;;;;;;;13.44;71.61;99912.41;5089006;28;20055;-30
2022/05/14 04:10:30;;;;;;;12.60;6.43;;;;;;;13.31;72.57;99910.88;5107421;28;20042;-32
2022/05/14 04:12:55;;;;;;;13.48;5.90;;;;;;;13.50;71.66;99906.09;5107197;28;20082;-33
2022/05/14 04:15:23;;;;;;;15.35;6.88;;;;;;;13.70;70.95;99915.53;5107328;28;20530;-28
2022/05/14 04:17:49;;;;;;;;;;;;;;;13.83;70.25;99910.69;5107564;28;20070;-29
2022/05/14 04:20:14;;;;;;;12.63;5.53;;;;;;;14.33;67.81;99916.22;5107746;28;19954;-30
2022/05/14 04:22:40;;;;;;;16.95;6.18;;;;;;;14.59;67.19;99918.22;5107063;28;20026;-29
2022/05/14 04:25:06;;;;;;;10.20;6.72;;;;;;;14.61;68.11;99893.84;5107117;28;20038;-28
2022/05/14 04:27:32;;;;;;;12.90;7.30;;;;;;;14.83;69.12;99912.59;5106673;28;20050;-31
2022/05/14 04:29:58;;;;;;;11.82;7.53;;;;;;;14.63;70.25;99913.97;5107409;28;20087;-28
2022/05/14 04:32:24;;;;;;;12.95;7.20;;;;;;;14.63;70.52;99910.50;5107296;28;20024;-29
2022/05/14 04:34:49;;;;;;;11.63;6.55;;;;;;;14.60;71.33;99916.34;5106955;28;20036;-30
2022/05/14 04:37:15;;;;;;;10.65;5.95;;;;;;;14.72;71.47;99914.34;5107203;28;20108;-29
2022/05/14 04:39:40;;;;;;;13.73;6.35;;;;;;;14.99;69.98;99913.59;5106510;28;20077;-29
2022/05/14 04:42:09;;;;;;;9.93;6.03;;;;;;;14.79;67.23;99896.19;5106826;28;20492;-29
2022/05/14 04:44:37;;;;;;;12.02;6.18;;;;;;;14.82;66.32;99901.06;5088631;28;20101;-30
2022/05/14 04:47:03;;;;;;;11.60;6.18;;;;;;;15.10;64.29;99884.97;5088667;28;20645;-32
2022/05/14 04:49:29;;;;;;;11.32;6.53;;;;;;;15.27;65.77;99923.28;5088412;28;20039;-30
2022/05/14 04:51:55;;;;;;;10.57;6.43;;;;;;;15.35;65.32;99913.97;5107153;28;20028;-29
2022/05/14 04:54:21;;;;;;;11.10;6.60;;;;;;;15.39;65.92;99925.84;5088399;28;20027;-30
2022/05/14 04:56:47;;;;;;;13.43;8.32;;;;;;;15.38;67.13;99918.81;5106777;28;20031;-29
2022/05/14 04:59:13;;;;;;;16.95;12.20;;;;;;;15.67;67.51;99932.78;5088672;28;20070;-31
2022/05/14 05:03:16;;;;;;;26.98;19.08;;;;;;;15.84;67.34;99932.72;5088407;28;20111;-28
2022/05/14 05:04:25;;;;;;;39.00;25.98;;;;;;;16.24;65.57;99942.97;5106711;28;20063;-31
2022/05/14 05:06:50;;;;;;;28.45;20.45;;;;;;;16.60;63.56;99950.41;5106925;28;20148;-29
2022/05/14 05:09:15;;;;;;;27.38;17.00;;;;;;;16.93;61.51;99951.13;5108608;28;20028;-32
2022/05/14 05:11:41;;;;;;;22.50;16.05;;;;;;;16.99;60.08;99942.00;5110465;28;20091;-29
2022/05/14 05:14:06;;;;;;;26.55;18.98;;;;;;;16.86;60.12;99927.94;5110702;28;20032;-28
2022/05/14 05:16:32;;;;;;;21.55;16.08;;;;;;;17.20;59.62;99954.47;5110522;28;20020;-30
2022/05/14 05:18:57;;;;;;;29.95;22.17;;;;;;;17.01;61.31;99934.47;5110680;28;20024;-31
2022/05/14 05:21:23;;;;;;;33.35;23.23;;;;;;;17.25;60.90;99934.81;5091839;28;20034;-31
2022/05/14 05:23:48;;;;;;;35.42;25.58;;;;;;;17.46;61.03;99949.13;5110300;28;20038;-31
2022/05/14 05:26:14;;;;;;;60.20;46.90;;;;;;;17.48;60.63;99950.47;5110678;28;20407;-30
2022/05/14 05:28:40;;;;;;;49.88;40.78;;;;;;;17.68;59.03;99938.09;5110484;28;20035;-30
2022/05/14 05:31:07;;;;;;;58.90;45.05;;;;;;;18.12;59.53;99947.53;5092128;28;20027;-30
2022/05/14 05:33:32;;;;;;;60.80;47.72;;;;;;;18.20;59.42;99944.28;5109906;28;20080;-30
2022/05/14 05:35:57;;;;;;;55.40;44.13;;;;;;;18.30;59.53;99944.28;5110201;28;20027;-29
2022/05/14 05:38:23;;;;;;;47.88;39.55;;;;;;;18.46;60.44;99953.97;5110410;28;20395;-30
2022/05/14 05:40:51;;;;;;;50.97;39.28;;;;;;;18.56;60.85;99946.94;5091998;28;20089;-29
2022/05/14 05:43:16;;;;;;;44.00;32.33;;;;;;;18.72;59.73;99929.59;5110388;28;20792;-29
2022/05/14 05:45:45;;;;;;;41.22;28.85;;;;;;;18.65;57.45;99947.97;5109890;28;20028;-34
2022/05/14 05:48:11;;;;;;;33.45;27.10;;;;;;;18.95;59.67;99943.56;5091622;28;20032;-32
2022/05/14 05:50:38;;;;;;;26.02;19.38;;;;;;;19.14;60.80;99936.41;5110175;28;20031;-35
2022/05/14 05:53:04;;;;;;;18.70;13.00;;;;;;;19.10;56.72;99932.66;5091397;28;20024;-31
2022/05/14 05:58:17;;;;;;;14.15;9.63;;;;;;;19.38;57.09;99931.16;5109854;28;20033;-31
2022/05/14 06:00:43;;;;;;;14.55;9.55;;;;;;;19.90;57.25;99937.03;5109874;28;20059;-29
2022/05/14 06:03:08;;;;;;;12.18;8.98;;;;;;;19.91;54.67;99937.81;5091606;28;20031;-31
2022/05/14 06:05:34;;;;;;;14.20;8.52;;;;;;;19.81;54.54;99934.09;5109223;28;20455;-30
2022/05/14 06:07:59;;;;;;;15.10;8.65;;;;;;;20.00;54.36;99955.88;5109844;28;20161;-29
2022/05/14 06:10:25;;;;;;;12.40;8.68;;;;;;;20.07;54.64;99931.97;5109637;28;20036;-29
2022/05/14 06:12:52;;;;;;;10.52;7.47;;;;;;;19.98;54.23;99949.94;5109865;28;20122;-32
2022/05/14 06:15:19;;;;;;;13.32;8.98;;;;;;;20.19;54.66;99947.06;5090999;28;20115;-32
2022/05/14 06:17:45;;;;;;;11.77;8.52;;;;;;;20.41;53.36;99933.81;5109335;28;20039;-30
2022/05/14 06:20:14;;;;;;;14.23;9.00;;;;;;;20.57;53.94;99944.47;5109255;28;20039;-30
2022/05/14 06:22:40;;;;;;;11.55;8.38;;;;;;;20.90;54.24;99952.78;5109365;28;20039;-30
2022/05/14 06:25:07;;;;;;;13.52;9.07;;;;;;;20.67;53.60;99952.50;5109683;28;20084;-29
2022/05/14 06:27:33;;;;;;;9.93;7.57;;;;;;;20.79;53.23;99955.63;5090752;28;20062;-30
2022/05/14 06:29:58;;;;;;;11.63;7.75;;;;;;;21.10;53.50;99957.94;5074294;28;20142;-30
2022/05/14 06:32:24;;;;;;;16.33;11.23;;;;;;;21.26;53.17;99959.34;5109119;28;20027;-29
2022/05/14 06:34:49;;;;;;;29.98;19.10;;;;;;;21.46;53.34;99955.56;5109017;28;20032;-30
2022/05/14 06:37:15;;;;;;;11.40;8.02;;;;;;;21.45;52.68;99961.28;5109137;28;20043;-30
2022/05/14 06:39:42;;;;;;;10.80;7.95;;;;;;;21.23;52.92;99930.13;5108697;28;20083;-33
2022/05/14 06:42:08;;;;;;;12.13;9.32;;;;;;;21.67;51.82;99947.91;5108998;28;20792;-35
2022/05/14 06:44:33;;;;;;;9.85;7.35;;;;;;;21.89;50.82;99951.91;5109153;28;20034;-29
2022/05/14 06:46:59;;;;;;;13.13;7.63;;;;;;;21.70;50.79;99940.28;5109052;28;20118;-28
2022/05/14 06:49:24;;;;;;;10.10;6.88;;;;;;;22.01;51.51;99949.53;5108638;28;20039;-29
2022/05/14 06:51:52;;;;;;;11.57;6.88;;;;;;;22.17;49.98;99935.69;5108563;28;20025;-31
2022/05/14 06:54:19;;;;;;;8.45;6.65;;;;;;;22.34;51.69;99954.16;5090309;28;20078;-31
2022/05/14 06:56:46;;;;;;;12.40;8.47;;;;;;;22.54;51.11;99951.06;5090128;28;20031;-31
2022/05/14 06:59:14;;;;;;;9.40;6.68;;;;;;;22.38;49.24;99936.94;5090241;28;20257;-32
2022/05/14 07:01:42;;;;;;;7.70;6.18;;;;;;;22.45;47.65;99959.13;5108423;28;20114;-30
2022/05/14 07:06:54;;;;;;;8.52;6.30;;;;;;;22.75;48.48;99946.00;5108800;28;20066;-30
2022/05/14 07:09:28;;;;;;;11.80;6.80;;;;;;;23.25;47.75;99958.84;5108265;28;20538;-32
2022/05/14 07:12:05;;;;;;;10.45;6.70;;;;;;;22.73;49.12;99953.66;5089744;28;20035;-29
2022/05/14 07:14:32;;;;;;;11.65;6.85;;;;;;;23.06;47.96;99961.72;5090091;28;20106;-30
2022/05/14 07:16:58;;;;;;;8.43;7.00;;;;;;;23.38;47.51;99962.66;5090061;28;20030;-30
2022/05/14 07:19:23;;;;;;;10.63;6.53;;;;;;;23.47;46.15;99958.88;5108227;28;20028;-30
2022/05/14 07:21:51;;;;;;;8.48;6.20;;;;;;;23.43;45.55;99952.44;5089701;28;21108;-33
2022/05/14 07:24:25;;;;;;;9.98;6.03;;;;;;;23.46;45.42;99956.50;5089714;28;20042;-29
2022/05/14 07:26:53;;;;;;;9.57;6.45;;;;;;;23.66;45.96;99953.28;5107996;28;20055;-30
2022/05/14 07:29:21;;;;;;;10.27;6.95;;;;;;;23.92;45.03;99963.56;5090206;28;20031;-31
2022/05/14 07:31:48;;;;;;;11.93;6.75;;;;;;;24.15;44.77;99983.44;5088833;28;20122;-29
2022/05/14 07:34:16;;;;;;;9.40;6.50;;;;;;;23.81;45.99;99987.53;5089517;28;20114;-31
2022/05/14 07:37:05;;;;;;;8.40;5.63;;;;;;;23.90;44.22;99984.84;5089214;28;20130;-30
2022/05/14 07:39:37;;;;;;;7.53;5.55;;;;;;;23.84;45.01;99986.09;5107371;28;20123;-29
2022/05/14 07:42:07;;;;;;;8.30;6.00;;;;;;;24.20;44.47;99982.50;5107901;28;20110;-29
2022/05/14 07:44:37;;;;;;;10.05;6.28;;;;;;;24.82;44.88;99987.91;5089363;28;20034;-29
2022/05/14 07:47:03;;;;;;;9.23;5.78;;;;;;;24.82;44.93;99979.72;5107830;28;20028;-35
2022/05/14 07:49:29;;;;;;;8.68;6.13;;;;;;;24.84;43.58;99976.69;5088858;28;20028;-37
2022/05/14 07:51:55;;;;;;;10.63;5.97;;;;;;;24.67;45.08;99975.50;5089012;28;20059;-30
2022/05/14 07:54:28;;;;;;;8.52;5.85;;;;;;;24.67;45.37;99966.53;5089489;28;20036;-33
2022/05/14 07:56:55;;;;;;;9.02;5.43;;;;;;;24.74;42.82;99968.81;5089284;28;20024;-31
2022/05/14 07:59:20;;;;;;;8.97;5.47;;;;;;;24.97;43.61;99985.88;5089343;28;20028;-29
2022/05/14 08:01:46;;;;;;;9.05;5.63;;;;;;;25.03;42.84;99970.97;5107388;28;20039;-29
2022/05/14 08:04:12;;;;;;;8.18;5.47;;;;;;;25.16;42.69;99986.41;5088950;28;20035;-31
2022/05/14 08:06:38;;;;;;;7.80;5.65;;;;;;;25.33;41.41;99984.84;5107664;28;20479;-31
2022/05/14 08:09:04;;;;;;;10.00;5.70;;;;;;;25.60;40.70;99992.72;5107994;28;20051;-29
2022/05/14 08:11:30;;;;;;;8.77;6.35;;;;;;;25.44;42.02;99958.84;5107379;28;20035;-32
2022/05/14 08:13:58;;;;;;;6.65;5.40;;;;;;;25.88;42.60;99989.66;5088740;28;20479;-30
2022/05/14 08:16:24;;;;;;;9.43;6.47;;;;;;;25.90;41.85;99983.91;5088643;28;20035;-31
2022/05/14 08:18:49;;;;;;;9.00;5.78;;;;;;;26.20;40.56;100002.00;5107115;28;20039;-33
2022/05/14 08:26:43;;;;;;;9.55;5.53;;;;;;;26.35;39.51;100003.41;5107441;28;20043;-31
2022/05/14 08:29:09;;;;;;;10.48;5.57;;;;;;;26.20;39.63;100007.47;5107188;28;20024;-32
2022/05/14 08:31:34;;;;;;;7.47;5.68;;;;;;;26.24;39.59;99980.28;5107069;28;20035;-29
2022/05/14 08:34:00;;;;;;;8.32;5.50;;;;;;;26.22;39.72;100012.63;5089057;28;20035;-30
2022/05/14 08:36:26;;;;;;;8.77;6.47;;;;;;;26.26;40.55;100008.09;5107208;28;20039;-35
2022/05/14 08:38:52;;;;;;;8.43;5.45;;;;;;;25.98;40.66;99994.81;5107070;28;20060;-30
2022/05/14 08:41:18;;;;;;;13.18;5.95;;;;;;;25.88;41.56;99995.09;5088806;28;20032;-36
2022/05/14 08:43:48;;;;;;;8.07;5.07;;;;;;;26.43;42.03;99999.03;5089593;28;20410;-34
2022/05/14 08:46:17;;;;;;;6.45;5.00;;;;;;;26.97;38.94;100017.66;5092742;28;20023;-32
2022/05/14 08:48:47;;;;;;;8.00;5.30;;;;;;;27.33;38.13;100010.88;5111186;28;20030;-30
2022/05/14 08:51:16;;;;;;;8.50;5.25;;;;;;;27.39;37.92;99995.84;5092634;28;20031;-33
2022/05/14 08:53:43;;;;;;;9.00;5.45;;;;;;;27.78;36.39;100012.94;5092292;28;20031;-29
2022/05/14 08:56:21;;;;;;;8.20;5.40;;;;;;;27.67;37.52;100017.22;5110873;28;20072;-29
2022/05/14 08:59:08;;;;;;;6.80;5.20;;;;;;;27.97;36.96;100016.03;5110937;28;20027;-29
2022/05/14 09:01:37;;;;;;;10.20;6.68;;;;;;;28.35;37.00;100008.69;5092241;28;20116;-38
2022/05/14 09:04:03;;;;;;;7.80;5.45;;;;;;;27.72;38.15;100006.06;5111122;28;20411;-31
2022/05/14 09:06:29;;;;;;;8.07;5.97;;;;;;;27.69;39.21;100007.53;5092431;28;20038;-32
2022/05/14 09:08:55;;;;;;;8.93;6.35;;;;;;;27.56;38.40;100006.66;5110618;28;20023;-29
2022/05/14 09:11:40;;;;;;;8.40;5.40;;;;;;;27.45;39.58;100010.94;5092603;28;20028;-34
2022/05/14 09:14:25;;;;;;;7.50;5.68;;;;;;;27.47;39.03;99996.91;5092436;28;20107;-31
2022/05/14 09:17:11;;;;;;;8.60;5.57;;;;;;;26.62;39.01;100015.91;5092142;28;20016;-31
2022/05/14 09:19:39;;;;;;;11.50;5.32;;;;;;;26.15;40.07;100025.97;5110618;28;20028;-30
2022/05/14 09:22:18;;;;;;;11.15;5.82;;;;;;;26.08;40.48;100017.47;5092235;28;20027;-30
2022/05/14 09:24:51;;;;;;;9.23;5.57;;;;;;;25.59;42.27;100017.63;5092169;28;20561;-37
2022/05/14 09:27:22;;;;;;;10.25;5.60;;;;;;;25.71;42.64;100017.00;5091855;28;20028;-32
2022/05/14 09:29:53;;;;;;;12.38;6.40;;;;;;;25.72;43.23;100021.31;5109844;28;20499;-29
2022/05/14 09:32:22;;;;;;;11.13;6.20;;;;;;;25.73;42.89;100034.66;5091791;28;20019;-31
2022/05/14 09:34:48;;;;;;;13.63;5.68;;;;;;;25.57;42.55;100006.22;5110357;28;20032;-33
2022/05/14 09:37:23;;;;;;;9.05;5.78;;;;;;;25.44;41.78;100010.72;5091568;28;20491;-34
2022/05/14 09:40:08;;;;;;;9.00;5.82;;;;;;;25.44;42.94;100002.53;5090669;28;20056;-33
2022/05/14 09:42:48;;;;;;;10.20;6.90;;;;;;;25.55;44.11;100009.25;5090614;28;20111;-32
2022/05/14 09:45:29;;;;;;;14.18;6.57;;;;;;;25.85;41.48;100012.97;5090444;28;20558;-30
2022/05/14 09:47:54;;;;;;;7.20;4.95;;;;;;;25.95;41.98;100022.78;5090345;28;20606;-34
2022/05/14 09:50:30;;;;;;;10.95;6.07;;;;;;;25.66;42.50;99998.81;5108892;28;20055;-29
2022/05/14 09:53:03;;;;;;;13.43;7.60;;;;;;;25.39;43.64;99997.22;5090390;28;20035;-32
2022/05/14 09:55:45;;;;;;;12.88;7.05;;;;;;;25.63;42.57;100011.19;5090136;28;20854;-29
2022/05/14 09:58:48;;;;;;;12.23;6.43;;;;;;;25.38;44.00;100003.81;5090374;28;20027;-32
2022/05/14 10:01:13;;;;;;;12.10;7.13;;;;;;;25.51;44.59;100011.03;5089282;28;20035;-29
2022/05/14 10:03:41;;;;;;;11.57;7.35;;;;;;;25.34;45.28;100008.31;5108822;28;20819;-29
2022/05/14 10:06:54;;;;;;;10.35;5.80;;;;;;;25.50;43.96;100011.34;5108566;28;20035;-32
2022/05/14 10:09:46;;;;;;;9.30;5.32;;;;;;;25.59;43.74;100020.34;5051774;28;20043;-31
2022/05/14 10:12:33;;;;;;;10.00;5.78;;;;;;;25.71;44.53;100017.78;5108755;28;20038;-31
2022/05/14 10:15:01;;;;;;;8.15;5.68;;;;;;;25.52;43.61;100020.84;5108563;28;20474;-30
2022/05/14 10:17:37;;;;;;;9.10;5.25;;;;;;;25.19;42.63;99999.41;5108444;28;20494;-30
2022/05/14 10:20:29;;;;;;;10.02;5.90;;;;;;;25.60;43.83;100011.03;5090109;28;20703;-29
2022/05/14 10:29:20;;;;;;;6.53;3.92;;;;;;;24.94;44.24;100011.06;5108299;28;20051;-31
2022/05/14 10:31:59;;;;;;;4.63;3.30;;;;;;;24.73;45.85;99998.00;5107933;28;20051;-29
2022/05/14 10:34:56;;;;;;;7.32;3.10;;;;;;;24.27;46.97;100010.09;5089260;28;20028;-29
2022/05/14 10:37:31;;;;;;;6.53;3.42;;;;;;;24.42;47.70;100006.97;5080153;28;20122;-30
2022/05/14 10:40:22;;;;;;;5.13;3.00;;;;;;;24.83;47.92;100000.44;5038950;28;1439941;-29
2022/05/14 10:42:54;;;;;;;8.00;3.72;;;;;;;25.33;47.26;100009.41;5090225;28;20784;-30
2022/05/14 10:45:19;;;;;;;6.63;3.80;;;;;;;26.16;46.35;100011.97;5109077;28;20031;-29
2022/05/14 10:47:50;;;;;;;7.65;3.42;;;;;;;26.53;45.34;100020.56;5108801;28;20096;-32
2022/05/14 10:50:19;;;;;;;13.75;4.40;;;;;;;26.86;45.36;100004.34;5090417;28;20036;-31
2022/05/14 10:52:48;;;;;;;7.75;3.45;;;;;;;27.34;43.75;100020.66;5090245;28;20028;-29
2022/05/14 10:55:30;;;;;;;5.38;3.38;;;;;;;28.05;43.07;100009.66;5089967;28;20071;-30
2022/05/14 10:58:00;;;;;;;6.95;2.80;;;;;;;28.09;38.54;99995.25;5108725;28;20023;-30
2022/05/14 11:00:28;;;;;;;4.20;2.47;;;;;;;28.57;38.92;100012.97;5090292;28;20042;-30
2022/05/14 11:03:06;;;;;;;12.13;2.90;;;;;;;28.94;36.20;100011.03;5108564;28;20023;-30
2022/05/14 11:05:35;;;;;;;5.15;2.90;;;;;;;28.32;39.50;99996.47;5107804;28;20032;-34
2022/05/14 11:08:13;;;;;;;7.10;3.05;;;;;;;27.71;40.86;99999.00;5089579;28;20031;-33
2022/05/14 11:10:40;;;;;;;5.82;3.08;;;;;;;27.81;41.21;100018.53;5089782;28;20031;-36
2022/05/14 11:13:25;;;;;;;7.93;3.92;;;;;;;27.41;42.86;100024.50;5089788;28;20024;-35
2022/05/14 11:16:04;;;;;;;6.80;3.67;;;;;;;27.39;42.02;100017.75;5107906;28;20042;-32
2022/05/14 11:18:30;;;;;;;5.63;3.50;;;;;;;27.83;42.55;100026.44;5089808;28;20039;-29
2022/05/14 11:21:03;;;;;;;6.57;3.20;;;;;;;27.43;41.66;100024.97;5108333;28;20020;-30
2022/05/14 11:23:28;;;;;;;5.03;3.53;;;;;;;28.34;41.08;100018.88;5089933;28;20105;-29
2022/05/14 11:26:12;;;;;;;6.45;3.53;;;;;;;28.55;40.03;99991.38;5089657;28;20067;-30
2022/05/14 11:28:37;;;;;;;7.43;3.30;;;;;;;27.90;40.15;100002.03;5089491;28;20411;-30
2022/05/14 11:31:24;;;;;;;10.35;4.28;;;;;;;28.00;39.48;100007.09;5108246;28;20027;-30
2022/05/14 11:33:54;;;;;;;6.95;3.75;;;;;;;27.82;40.30;100016.59;5089397;28;20039;-30
2022/05/14 11:36:31;;;;;;;4.93;3.35;;;;;;;27.91;41.31;100016.53;5089493;28;20031;-30
2022/05/14 11:39:08;;;;;;;9.18;3.85;;;;;;;28.04;39.81;100010.78;5107238;28;20063;-31
2022/05/14 11:41:36;;;;;;;5.72;3.35;;;;;;;27.97;39.54;99996.84;5089201;28;20024;-32
2022/05/14 11:44:06;;;;;;;6.70;3.47;;;;;;;28.34;39.06;100005.16;5089312;28;20035;-29
2022/05/14 11:46:40;;;;;;;5.13;2.85;;;;;;;28.17;38.80;100006.13;5089156;28;20016;-38
2022/05/14 11:49:41;;;;;;;4.47;2.55;;;;;;;27.85;39.00;99991.28;5088933;28;20468;-34
2022/05/14 11:52:30;;;;;;;5.57;2.88;;;;;;;28.43;38.50;99999.56;5035865;28;20043;-35
2022/05/14 11:55:14;;;;;;;5.90;2.50;;;;;;;27.53;39.47;99985.41;5089093;28;20067;-37
2022/05/14 11:57:49;;;;;;;4.38;2.08;;;;;;;27.81;38.77;99984.88;5071938;28;20566;-35
2022/05/14 12:00:17;;;;;;;6.18;2.45;;;;;;;28.18;38.72;99976.78;5107489;28;20036;-30